Time;durP1;ratioP1;P1;durP2;ratioP2;P2;SDS_P1;SDS_P2;PMS_P1;PMS_P2;Temp;Humidity;BMP_temperature;BMP_pressure;BME280_temperature;BME280_humidity;BME280_pressure;Samples;Min_cycle;Max_cycle;Signal;HPM_P1;HPM_P2
2022/03/24 00:00:31;;;;;;;36.97;24.70;;;7.10;99.90;;;;;;5017354;28;20038;-74
2022/03/24 00:02:57;;;;;;;30.90;22.73;;;7.10;99.90;;;;;;5034295;28;20414;-74
2022/03/24 00:05:22;;;;;;;27.83;20.15;;;7.20;99.90;;;;;;5033976;28;20038;-74
2022/03/24 00:07:48;;;;;;;33.08;23.75;;;7.10;99.90;;;;;;5035025;28;20486;-74
2022/03/24 00:10:14;;;;;;;33.55;22.25;;;7.10;99.90;;;;;;5034958;28;20499;-74
2022/03/24 00:12:39;;;;;;;33.30;23.45;;;7.00;99.90;;;;;;5031634;28;20087;-74
2022/03/24 00:15:07;;;;;;;34.08;24.20;;;7.00;99.90;;;;;;5034974;28;20041;-74
2022/03/24 00:17:33;;;;;;;36.13;24.05;;;7.00;99.90;;;;;;5033896;28;20056;-74
2022/03/24 00:19:58;;;;;;;30.08;21.00;;;7.00;99.90;;;;;;5034858;28;20048;-74
2022/03/24 00:22:24;;;;;;;31.48;20.80;;;7.10;99.90;;;;;;5032448;28;20041;-74
2022/03/24 00:24:50;;;;;;;32.35;22.42;;;7.10;99.90;;;;;;5033615;28;20119;-74
2022/03/24 00:27:15;;;;;;;37.63;23.92;;;6.90;99.90;;;;;;5017487;28;20597;-74
2022/03/24 00:29:42;;;;;;;32.67;22.33;;;6.70;99.90;;;;;;5034671;28;20041;-74
2022/03/24 00:32:08;;;;;;;34.42;23.92;;;6.70;99.90;;;;;;5030542;28;20125;-74
2022/03/24 00:34:34;;;;;;;33.70;24.58;;;6.60;99.90;;;;;;5029833;28;20038;-74
2022/03/24 00:37:00;;;;;;;38.17;26.50;;;6.70;99.90;;;;;;5051120;28;20037;-74
2022/03/24 00:39:26;;;;;;;33.10;24.33;;;6.80;99.90;;;;;;5033582;28;20505;-74
2022/03/24 00:41:52;;;;;;;33.33;24.10;;;6.80;99.90;;;;;;5034326;28;20125;-74
2022/03/24 00:44:19;;;;;;;32.63;21.00;;;6.80;99.90;;;;;;5033350;28;20553;-74
2022/03/24 00:46:45;;;;;;;32.13;21.05;;;6.80;99.90;;;;;;5017779;28;20053;-74
2022/03/24 00:49:11;;;;;;;31.20;22.48;;;6.90;99.90;;;;;;5033267;28;20056;-75
2022/03/24 00:51:36;;;;;;;33.03;22.33;;;6.90;99.90;;;;;;5034460;28;20390;-74
2022/03/24 00:54:03;;;;;;;29.17;21.20;;;6.80;99.90;;;;;;5016853;28;20042;-74
2022/03/24 00:56:28;;;;;;;28.90;22.27;;;6.80;99.90;;;;;;5034226;28;20073;-74
2022/03/24 00:58:55;;;;;;;27.13;20.58;;;6.70;99.90;;;;;;5013604;28;20089;-74
2022/03/24 01:01:21;;;;;;;29.13;20.92;;;6.60;99.90;;;;;;5027718;28;20080;-74
2022/03/24 01:03:48;;;;;;;31.83;22.02;;;6.60;99.90;;;;;;5033105;28;20071;-74
2022/03/24 01:06:16;;;;;;;32.17;21.70;;;6.40;99.90;;;;;;5016747;28;20045;-75
2022/03/24 01:08:42;;;;;;;28.42;21.27;;;6.30;99.90;;;;;;5033073;28;20084;-74
2022/03/24 01:11:08;;;;;;;30.25;21.20;;;6.30;99.90;;;;;;5033185;28;20494;-74
2022/03/24 01:13:34;;;;;;;31.30;22.38;;;6.30;99.90;;;;;;5032870;28;20037;-74
2022/03/24 01:16:01;;;;;;;32.17;22.52;;;6.20;99.90;;;;;;5017372;28;20103;-74
2022/03/24 01:18:27;;;;;;;32.35;22.10;;;6.10;99.90;;;;;;5028464;28;20438;-74
2022/03/24 01:20:52;;;;;;;31.45;23.27;;;6.00;99.90;;;;;;5020817;28;20045;-74
2022/03/24 01:23:19;;;;;;;29.17;21.50;;;5.90;99.90;;;;;;5017440;28;20041;-74
2022/03/24 01:25:44;;;;;;;32.03;22.67;;;5.90;99.90;;;;;;5032826;28;20048;-74
2022/03/24 01:28:11;;;;;;;32.08;23.58;;;6.00;99.90;;;;;;5033658;28;20441;-74
2022/03/24 01:30:39;;;;;;;36.05;25.92;;;6.00;99.90;;;;;;5049210;28;20033;-74
2022/03/24 01:33:04;;;;;;;38.60;26.88;;;6.10;99.90;;;;;;5033370;28;20045;-75
2022/03/24 01:35:31;;;;;;;36.40;27.50;;;6.20;99.90;;;;;;5032603;28;20116;-74
2022/03/24 01:37:58;;;;;;;37.50;27.83;;;6.20;99.90;;;;;;5014551;28;20045;-74
2022/03/24 01:40:24;;;;;;;35.60;25.38;;;6.20;99.90;;;;;;5032504;28;20124;-74
2022/03/24 01:42:50;;;;;;;33.88;26.10;;;6.10;99.90;;;;;;5049081;28;20121;-74
2022/03/24 01:45:16;;;;;;;28.20;20.33;;;6.00;99.90;;;;;;5033221;28;20065;-74
2022/03/24 01:47:41;;;;;;;31.77;23.23;;;5.90;99.90;;;;;;5016721;28;20060;-74
2022/03/24 01:50:09;;;;;;;35.92;24.00;;;5.70;99.90;;;;;;5047414;28;20042;-74
2022/03/24 01:52:35;;;;;;;39.40;27.17;;;5.60;99.90;;;;;;5016820;28;20128;-74
2022/03/24 01:55:01;;;;;;;37.00;25.58;;;5.40;99.90;;;;;;5012192;28;20126;-74
2022/03/24 01:57:28;;;;;;;39.72;27.50;;;5.40;99.90;;;;;;5013659;28;20034;-74
2022/03/24 01:59:54;;;;;;;41.47;28.35;;;5.40;99.90;;;;;;5027236;28;20037;-74
2022/03/24 02:02:23;;;;;;;41.15;27.40;;;5.40;99.90;;;;;;5032829;28;20564;-74
2022/03/24 02:04:49;;;;;;;39.05;27.25;;;5.40;99.90;;;;;;5032041;28;20040;-74
2022/03/24 02:07:15;;;;;;;41.08;29.40;;;5.40;99.90;;;;;;5031589;28;20490;-74
2022/03/24 02:09:41;;;;;;;40.75;28.67;;;5.30;99.90;;;;;;5032079;28;20045;-74
2022/03/24 02:12:11;;;;;;;37.78;27.58;;;5.40;99.90;;;;;;5031805;28;20037;-74
2022/03/24 02:14:38;;;;;;;43.25;30.73;;;5.40;99.90;;;;;;5031786;28;20041;-74
2022/03/24 02:17:04;;;;;;;43.60;28.83;;;5.40;99.90;;;;;;5049345;28;20045;-75
2022/03/24 02:19:33;;;;;;;40.50;29.05;;;5.40;99.90;;;;;;5015746;28;20081;-74
2022/03/24 02:22:14;;;;;;;39.63;29.00;;;5.40;99.90;;;;;;5014717;28;20474;-74
2022/03/24 02:24:40;;;;;;;43.23;30.17;;;5.40;99.90;;;;;;5016167;28;20049;-74
2022/03/24 02:27:06;;;;;;;42.10;28.92;;;5.40;99.90;;;;;;5016012;28;20037;-74
2022/03/24 02:29:32;;;;;;;42.78;30.33;;;5.30;99.90;;;;;;5031377;28;20045;-75
2022/03/24 02:31:58;;;;;;;46.28;29.58;;;5.30;99.90;;;;;;5046133;28;20052;-74
2022/03/24 02:37:14;;;;;;;29.67;20.08;;;5.40;99.90;;;;;;5045735;28;20081;-74
2022/03/24 02:39:48;;;;;;;22.35;16.65;;;5.30;99.90;;;;;;5015842;28;20049;-74
2022/03/24 02:42:20;;;;;;;22.85;15.70;;;5.40;99.90;;;;;;5014712;28;20501;-74
2022/03/24 02:44:54;;;;;;;20.23;14.63;;;5.40;99.90;;;;;;5048072;28;20056;-74
2022/03/24 02:47:20;;;;;;;22.48;16.02;;;5.30;99.90;;;;;;5047874;28;20033;-74
2022/03/24 02:49:49;;;;;;;24.02;15.85;;;5.30;99.90;;;;;;5032136;28;20029;-74
2022/03/24 02:52:15;;;;;;;24.38;15.60;;;5.20;99.90;;;;;;5030981;28;20041;-74
2022/03/24 02:54:42;;;;;;;23.75;16.30;;;5.10;99.90;;;;;;5015620;28;20195;-74
2022/03/24 02:57:08;;;;;;;22.90;15.32;;;5.10;99.90;;;;;;5047597;28;20037;-74
2022/03/24 02:59:34;;;;;;;23.58;16.55;;;5.10;99.90;;;;;;5048658;28;20034;-74
2022/03/24 03:02:12;;;;;;;25.05;17.98;;;5.00;99.90;;;;;;5032143;28;20037;-74
2022/03/24 03:04:38;;;;;;;26.00;17.70;;;5.00;99.90;;;;;;5031886;28;20034;-74
2022/03/24 03:07:04;;;;;;;30.33;19.90;;;5.00;99.90;;;;;;5045941;28;20429;-74
2022/03/24 03:09:31;;;;;;;31.90;22.42;;;4.90;99.90;;;;;;5015348;28;20041;-74
2022/03/24 03:11:58;;;;;;;32.33;23.30;;;4.80;99.90;;;;;;5048568;28;20049;-74
2022/03/24 03:14:24;;;;;;;30.98;20.55;;;4.80;99.90;;;;;;5030654;28;20045;-74
2022/03/24 03:16:50;;;;;;;27.10;20.00;;;4.90;99.90;;;;;;5015499;28;20029;-74
2022/03/24 03:19:18;;;;;;;31.00;21.15;;;4.80;99.90;;;;;;5014654;28;20532;-74
2022/03/24 03:21:45;;;;;;;31.45;21.38;;;4.90;99.90;;;;;;5015627;28;20042;-74
2022/03/24 03:24:11;;;;;;;24.67;17.98;;;4.90;99.90;;;;;;5047402;28;20042;-74
2022/03/24 03:26:38;;;;;;;20.70;13.95;;;4.80;99.90;;;;;;5015396;28;20076;-74
2022/03/24 03:29:06;;;;;;;17.33;11.85;;;4.80;99.90;;;;;;5047336;28;20516;-74
2022/03/24 03:31:31;;;;;;;14.27;9.80;;;4.80;99.90;;;;;;5015319;28;20045;-74
2022/03/24 03:33:58;;;;;;;17.02;11.30;;;4.80;99.90;;;;;;5010969;28;20038;-74
2022/03/24 03:36:24;;;;;;;21.05;14.07;;;4.80;99.90;;;;;;5012001;28;20091;-74
2022/03/24 03:38:49;;;;;;;25.70;18.27;;;4.80;99.90;;;;;;5009890;28;20486;-74
2022/03/24 03:41:17;;;;;;;31.20;20.90;;;4.70;99.90;;;;;;5011972;28;20048;-74
2022/03/24 03:43:43;;;;;;;28.95;20.15;;;4.70;99.90;;;;;;5011221;28;20042;-74
2022/03/24 03:46:10;;;;;;;33.67;22.90;;;4.60;99.90;;;;;;5013576;28;20053;-74
2022/03/24 03:48:37;;;;;;;33.30;23.02;;;4.50;99.90;;;;;;5027305;28;20050;-74
2022/03/24 03:51:04;;;;;;;38.00;25.83;;;4.30;99.90;;;;;;5028282;28;20046;-74
2022/03/24 03:53:29;;;;;;;36.63;25.75;;;4.10;99.90;;;;;;5035694;28;20072;-74
2022/03/24 03:55:55;;;;;;;38.78;25.75;;;4.20;99.90;;;;;;5028675;28;20070;-74
2022/03/24 03:58:20;;;;;;;38.25;26.02;;;4.20;99.90;;;;;;5027987;28;20030;-74
2022/03/24 04:00:58;;;;;;;37.80;24.85;;;4.20;99.90;;;;;;5011077;28;20088;-74
2022/03/24 04:03:25;;;;;;;34.45;25.48;;;4.30;99.90;;;;;;5001965;28;20132;-74
2022/03/24 04:05:53;;;;;;;30.17;21.77;;;4.40;99.90;;;;;;5048061;28;20037;-74
2022/03/24 04:08:19;;;;;;;40.55;27.45;;;4.40;99.90;;;;;;5045690;28;20049;-74
2022/03/24 04:10:45;;;;;;;39.03;25.95;;;4.30;99.90;;;;;;5046293;28;20048;-74
2022/03/24 04:13:11;;;;;;;38.55;25.77;;;4.30;99.90;;;;;;5031188;28;20042;-74
2022/03/24 04:15:37;;;;;;;36.28;25.42;;;4.30;99.90;;;;;;5031285;28;20099;-74
2022/03/24 04:18:03;;;;;;;40.30;27.63;;;4.30;99.90;;;;;;5048351;28;20425;-74
2022/03/24 04:20:29;;;;;;;37.90;27.02;;;4.20;99.90;;;;;;5017712;28;20038;-74
2022/03/24 04:22:59;;;;;;;39.63;26.90;;;4.20;99.90;;;;;;5018335;28;20512;-74
2022/03/24 04:25:26;;;;;;;40.35;27.55;;;4.20;99.90;;;;;;5033846;28;20029;-74
2022/03/24 04:27:51;;;;;;;40.25;28.30;;;4.20;99.90;;;;;;5034771;28;20049;-74
2022/03/24 04:30:17;;;;;;;40.88;29.15;;;4.30;99.90;;;;;;5033614;28;20144;-74
2022/03/24 04:32:44;;;;;;;44.17;29.83;;;4.20;99.90;;;;;;5018143;28;20128;-74
2022/03/24 04:35:11;;;;;;;39.65;28.33;;;4.20;99.90;;;;;;5017334;28;20490;-74
2022/03/24 04:37:37;;;;;;;43.67;30.15;;;4.30;99.90;;;;;;5049888;28;20048;-74
2022/03/24 04:40:05;;;;;;;47.08;31.63;;;4.30;99.90;;;;;;5032620;28;20041;-74
2022/03/24 04:42:31;;;;;;;43.08;29.40;;;4.30;99.90;;;;;;5016777;28;20057;-74
2022/03/24 04:44:57;;;;;;;47.72;31.98;;;4.30;99.90;;;;;;5016790;28;20049;-74
2022/03/24 04:47:23;;;;;;;45.70;30.58;;;4.30;99.90;;;;;;5034466;28;20494;-74
2022/03/24 04:49:49;;;;;;;44.85;31.48;;;4.30;99.90;;;;;;5033307;28;20037;-74
2022/03/24 04:52:15;;;;;;;43.63;30.67;;;4.10;99.90;;;;;;5013790;28;20029;-74
2022/03/24 04:54:41;;;;;;;46.53;31.77;;;4.10;99.90;;;;;;5014460;28;20125;-74
2022/03/24 04:57:06;;;;;;;41.92;28.20;;;4.10;99.90;;;;;;5033183;28;20486;-74
2022/03/24 04:59:32;;;;;;;43.80;30.02;;;4.10;99.90;;;;;;5034148;28;20048;-74
2022/03/24 05:01:57;;;;;;;41.78;28.98;;;4.10;99.90;;;;;;5032157;28;20077;-74
2022/03/24 05:04:24;;;;;;;42.13;29.05;;;4.10;99.90;;;;;;5017551;28;20037;-74
2022/03/24 05:06:52;;;;;;;41.65;28.75;;;4.20;99.90;;;;;;5016842;28;20041;-74
2022/03/24 05:09:18;;;;;;;44.65;30.30;;;4.10;99.90;;;;;;5050660;28;20073;-74
2022/03/24 05:11:44;;;;;;;41.47;29.40;;;4.00;99.90;;;;;;5031261;28;20430;-75
2022/03/24 05:14:11;;;;;;;41.20;28.95;;;4.00;99.90;;;;;;5033776;28;20048;-74
2022/03/24 05:16:36;;;;;;;39.20;27.52;;;3.90;99.90;;;;;;5016641;28;20033;-74
2022/03/24 05:19:03;;;;;;;40.80;28.00;;;3.90;99.90;;;;;;5017311;28;20585;-74
2022/03/24 05:21:29;;;;;;;39.67;27.70;;;3.90;99.90;;;;;;5013192;28;20062;-74
2022/03/24 05:23:54;;;;;;;42.38;28.00;;;4.00;99.90;;;;;;5014170;28;20076;-75
2022/03/24 05:26:23;;;;;;;40.75;28.00;;;4.00;99.90;;;;;;5025568;28;20052;-74
2022/03/24 05:28:49;;;;;;;41.08;27.75;;;4.00;99.90;;;;;;5015247;28;20147;-74
2022/03/24 05:31:16;;;;;;;35.83;25.38;;;3.90;99.90;;;;;;5029637;28;20131;-74
2022/03/24 05:33:43;;;;;;;24.95;16.85;;;3.90;99.90;;;;;;4997327;28;20046;-74
2022/03/24 05:36:08;;;;;;;22.83;14.88;;;3.90;99.90;;;;;;5022434;28;20087;-74
2022/03/24 05:38:34;;;;;;;20.73;13.63;;;3.80;99.90;;;;;;5050057;28;20037;-74
2022/03/24 05:41:00;;;;;;;26.67;17.17;;;3.80;99.90;;;;;;5015371;28;20087;-74
2022/03/24 05:43:26;;;;;;;32.28;22.05;;;3.80;99.90;;;;;;4997512;28;20510;-74
2022/03/24 05:45:51;;;;;;;32.50;20.95;;;3.80;99.90;;;;;;5012590;28;20085;-74
2022/03/24 05:48:17;;;;;;;35.45;23.30;;;3.70;99.90;;;;;;5015436;28;20037;-74
2022/03/24 05:50:44;;;;;;;39.28;25.77;;;3.60;99.90;;;;;;5032231;28;20034;-74
2022/03/24 05:53:09;;;;;;;39.90;26.38;;;3.70;99.90;;;;;;5015580;28;20044;-74
2022/03/24 05:55:37;;;;;;;39.05;24.63;;;3.60;99.90;;;;;;5031322;28;20038;-74
2022/03/24 05:58:04;;;;;;;37.88;24.70;;;3.50;99.90;;;;;;5015855;28;20116;-74
2022/03/24 06:00:30;;;;;;;35.38;23.10;;;3.50;99.90;;;;;;5030957;28;20059;-74
2022/03/24 06:02:56;;;;;;;32.80;22.45;;;3.50;99.90;;;;;;5014881;28;20046;-74
2022/03/24 06:05:23;;;;;;;28.63;19.05;;;3.50;99.90;;;;;;5025803;28;20417;-74
2022/03/24 06:07:49;;;;;;;28.33;15.73;;;3.50;99.90;;;;;;5045682;28;20038;-74
2022/03/24 06:10:15;;;;;;;22.35;14.25;;;3.60;99.90;;;;;;5023883;28;20041;-74
2022/03/24 06:12:40;;;;;;;19.92;13.10;;;3.70;99.90;;;;;;5027754;28;20128;-74
2022/03/24 06:15:07;;;;;;;21.17;13.48;;;3.70;99.90;;;;;;5031539;28;20034;-74
2022/03/24 06:17:33;;;;;;;21.65;14.02;;;3.90;99.90;;;;;;5030207;28;20044;-74
2022/03/24 06:20:01;;;;;;;22.38;15.23;;;3.90;99.90;;;;;;5031670;28;20529;-74
2022/03/24 06:22:28;;;;;;;23.20;15.93;;;3.90;99.90;;;;;;5022146;28;20030;-74
2022/03/24 06:24:54;;;;;;;26.70;18.42;;;3.90;99.90;;;;;;5014015;28;20042;-74
2022/03/24 06:27:20;;;;;;;24.95;16.10;;;3.90;99.90;;;;;;5014347;28;20087;-74
2022/03/24 06:29:47;;;;;;;23.90;16.35;;;3.90;99.90;;;;;;5029058;28;20441;-74
2022/03/24 06:32:13;;;;;;;25.17;17.27;;;4.00;99.90;;;;;;5024949;28;20046;-74
2022/03/24 06:34:38;;;;;;;26.52;17.83;;;4.00;99.90;;;;;;5016165;28;20038;-74
2022/03/24 06:37:04;;;;;;;28.23;19.92;;;4.00;99.90;;;;;;5001020;28;20033;-74
2022/03/24 06:39:30;;;;;;;29.50;19.30;;;4.00;99.90;;;;;;5030370;28;20037;-74
2022/03/24 06:41:55;;;;;;;31.13;21.08;;;4.00;99.90;;;;;;5014202;28;20033;-74
2022/03/24 06:44:21;;;;;;;33.38;22.55;;;4.00;99.90;;;;;;5031599;28;20068;-74
2022/03/24 06:46:48;;;;;;;37.67;25.77;;;4.00;99.90;;;;;;5030275;28;20049;-74
2022/03/24 06:49:15;;;;;;;38.40;27.13;;;4.00;99.90;;;;;;5044239;28;20033;-74
2022/03/24 06:51:41;;;;;;;37.05;25.25;;;4.00;99.90;;;;;;5011710;28;20090;-75
2022/03/24 06:54:06;;;;;;;39.45;26.77;;;4.10;99.90;;;;;;5013454;28;20053;-74
2022/03/24 06:56:32;;;;;;;30.63;20.95;;;4.20;99.90;;;;;;5029625;28;20029;-75
2022/03/24 06:58:57;;;;;;;33.85;24.15;;;4.40;99.90;;;;;;5028939;28;20068;-75
2022/03/24 07:01:23;;;;;;;40.17;26.42;;;4.50;99.90;;;;;;5029428;28;20405;-75
2022/03/24 07:03:49;;;;;;;39.08;26.60;;;4.60;99.90;;;;;;5029983;28;20048;-75
2022/03/24 07:06:14;;;;;;;41.22;27.20;;;4.60;99.90;;;;;;5029770;28;20037;-75
2022/03/24 07:08:40;;;;;;;35.17;24.83;;;4.70;99.90;;;;;;5029535;28;20041;-74
2022/03/24 07:11:06;;;;;;;33.47;23.13;;;4.80;99.90;;;;;;5030840;28;20096;-74
2022/03/24 07:13:32;;;;;;;37.72;26.42;;;4.90;99.90;;;;;;5031774;28;20125;-75
2022/03/24 07:15:57;;;;;;;35.75;24.67;;;5.00;99.90;;;;;;5030823;28;20037;-75
2022/03/24 07:18:23;;;;;;;35.30;24.67;;;5.00;99.90;;;;;;5031880;28;20041;-74
2022/03/24 07:20:50;;;;;;;39.95;26.77;;;5.10;99.90;;;;;;5029883;28;20405;-75
2022/03/24 07:23:16;;;;;;;42.13;29.52;;;5.20;99.90;;;;;;5014796;28;20477;-74
2022/03/24 07:25:42;;;;;;;48.47;30.80;;;5.20;99.90;;;;;;5030459;28;20091;-75
2022/03/24 07:28:10;;;;;;;42.95;30.48;;;5.30;99.90;;;;;;5031764;28;20060;-74
2022/03/24 07:30:36;;;;;;;44.28;30.15;;;5.40;99.90;;;;;;5015288;28;20091;-74
2022/03/24 07:33:03;;;;;;;44.88;30.48;;;5.50;99.90;;;;;;5030854;28;20045;-75
2022/03/24 07:35:34;;;;;;;44.60;30.58;;;5.70;99.90;;;;;;5031551;28;20037;-75
2022/03/24 07:38:00;;;;;;;44.65;32.28;;;5.80;99.90;;;;;;5027040;28;20171;-75
2022/03/24 07:40:26;;;;;;;54.78;37.20;;;5.90;99.90;;;;;;5025654;28;20034;-75
2022/03/24 07:42:53;;;;;;;54.50;37.58;;;6.00;99.90;;;;;;5027080;28;20511;-75
2022/03/24 07:45:23;;;;;;;60.17;43.13;;;6.30;99.90;;;;;;5017174;28;20065;-75
2022/03/24 07:48:06;;;;;;;71.90;49.67;;;6.50;99.90;;;;;;5030242;28;20072;-75
2022/03/24 07:50:33;;;;;;;69.75;47.42;;;6.60;99.90;;;;;;5044414;28;20049;-75
2022/03/24 07:53:13;;;;;;;75.55;49.13;;;6.70;99.90;;;;;;5032992;28;20406;-75
2022/03/24 07:55:41;;;;;;;68.75;45.65;;;6.80;99.90;;;;;;5034826;28;20473;-75
2022/03/24 07:58:08;;;;;;;70.60;48.65;;;6.90;99.90;;;;;;5032145;28;20030;-75
2022/03/24 08:00:34;;;;;;;65.57;44.75;;;7.20;99.90;;;;;;5017735;28;20128;-75
2022/03/24 08:03:00;;;;;;;64.68;44.65;;;7.20;99.90;;;;;;5017819;28;20120;-75
2022/03/24 08:05:26;;;;;;;63.45;44.20;;;7.50;99.90;;;;;;5035099;28;20500;-75
2022/03/24 08:07:54;;;;;;;64.50;43.35;;;7.50;99.90;;;;;;5034218;28;20045;-75
2022/03/24 08:10:20;;;;;;;57.88;38.38;;;7.70;99.90;;;;;;5051845;28;20038;-75
2022/03/24 08:12:45;;;;;;;62.65;42.83;;;7.80;99.90;;;;;;5034025;28;20037;-75
2022/03/24 08:15:12;;;;;;;56.10;38.13;;;8.00;99.90;;;;;;5034208;28;20041;-75
2022/03/24 08:17:38;;;;;;;55.42;38.45;;;8.20;99.90;;;;;;5017331;28;20479;-75
2022/03/24 08:20:06;;;;;;;57.28;38.50;;;8.30;99.90;;;;;;5033075;28;20092;-75
2022/03/24 08:22:31;;;;;;;53.80;40.08;;;8.60;99.90;;;;;;5027087;28;20038;-75
2022/03/24 08:24:57;;;;;;;63.90;44.00;;;8.70;99.90;;;;;;5009752;28;20036;-75
2022/03/24 08:27:23;;;;;;;64.93;43.47;;;9.00;99.90;;;;;;5027319;28;20494;-75
2022/03/24 08:29:48;;;;;;;57.33;40.97;;;9.20;99.90;;;;;;5034186;28;20042;-75
2022/03/24 08:32:15;;;;;;;47.58;31.33;;;9.40;99.90;;;;;;5042703;28;20505;-75
2022/03/24 08:34:40;;;;;;;48.05;32.88;;;9.60;99.90;;;;;;5031015;28;20038;-75
2022/03/24 08:37:06;;;;;;;45.30;32.33;;;9.90;99.90;;;;;;5022034;28;20044;-75
2022/03/24 08:39:32;;;;;;;48.55;33.33;;;10.00;99.90;;;;;;5034832;28;20087;-75
2022/03/24 08:41:58;;;;;;;42.92;31.23;;;10.10;99.90;;;;;;5031307;28;20037;-76
2022/03/24 08:44:24;;;;;;;50.28;34.22;;;10.20;99.90;;;;;;5049501;28;20099;-75
2022/03/24 08:46:49;;;;;;;48.88;33.45;;;10.40;99.90;;;;;;5048948;28;20072;-75
2022/03/24 08:49:15;;;;;;;50.50;35.65;;;10.50;99.90;;;;;;5034017;28;20041;-75
2022/03/24 08:51:41;;;;;;;50.60;33.78;;;10.70;99.90;;;;;;5049747;28;20069;-75
2022/03/24 08:54:07;;;;;;;48.83;33.85;;;10.80;99.90;;;;;;5031904;28;20087;-77
2022/03/24 08:56:33;;;;;;;48.90;34.92;;;10.90;99.90;;;;;;5032164;28;20033;-75
2022/03/24 08:58:59;;;;;;;53.80;36.03;;;11.10;99.90;;;;;;5026170;28;20116;-75
2022/03/24 09:01:27;;;;;;;49.70;34.45;;;11.20;99.90;;;;;;5031741;28;20108;-75
2022/03/24 09:03:52;;;;;;;45.88;31.95;;;11.30;99.90;;;;;;5031428;28;20367;-75
2022/03/24 09:06:19;;;;;;;44.45;30.77;;;11.50;99.70;;;;;;5032592;28;20042;-75
2022/03/24 09:08:44;;;;;;;44.63;30.40;;;11.60;99.30;;;;;;5025940;28;20581;-75
2022/03/24 09:11:10;;;;;;;42.50;29.63;;;11.60;99.90;;;;;;5010359;28;20113;-75
2022/03/24 09:13:36;;;;;;;42.13;30.13;;;11.80;99.80;;;;;;5022021;28;20029;-75
2022/03/24 09:16:02;;;;;;;40.53;28.48;;;12.00;99.90;;;;;;5017249;28;20069;-75
2022/03/24 09:18:27;;;;;;;42.95;29.20;;;12.10;99.90;;;;;;5015426;28;20072;-76
2022/03/24 09:20:53;;;;;;;41.95;30.50;;;12.30;99.90;;;;;;5029485;28;20080;-75
2022/03/24 09:23:19;;;;;;;41.70;29.52;;;12.40;99.80;;;;;;5030843;28;20072;-75
2022/03/24 09:25:45;;;;;;;48.22;30.70;;;12.50;99.90;;;;;;5030988;28;20037;-75
2022/03/24 09:28:10;;;;;;;44.88;30.52;;;12.70;99.50;;;;;;5030973;28;20110;-75
2022/03/24 09:30:37;;;;;;;40.60;28.45;;;12.80;99.40;;;;;;5015269;28;20136;-75
2022/03/24 09:33:03;;;;;;;42.50;28.05;;;12.80;97.30;;;;;;5022955;28;20084;-75
2022/03/24 09:35:28;;;;;;;44.83;28.88;;;13.00;98.10;;;;;;5013435;28;20041;-75
2022/03/24 09:37:54;;;;;;;40.58;29.25;;;13.10;98.10;;;;;;5014980;28;20040;-75
2022/03/24 09:40:20;;;;;;;41.55;28.98;;;13.20;97.30;;;;;;5031948;28;20037;-76
2022/03/24 09:42:46;;;;;;;38.80;29.08;;;13.30;97.00;;;;;;5031224;28;20034;-75
2022/03/24 09:45:13;;;;;;;39.33;29.35;;;13.40;97.40;;;;;;5014047;28;20053;-75
2022/03/24 09:47:39;;;;;;;41.75;29.00;;;13.50;97.30;;;;;;5030822;28;20037;-76
2022/03/24 09:50:07;;;;;;;45.53;29.75;;;13.60;96.80;;;;;;5014792;28;20043;-75
2022/03/24 09:52:33;;;;;;;41.17;28.65;;;13.70;96.10;;;;;;5047546;28;20513;-75
2022/03/24 09:54:59;;;;;;;40.70;29.58;;;13.80;95.60;;;;;;5030071;28;20118;-76
2022/03/24 09:57:24;;;;;;;45.05;30.15;;;13.90;96.30;;;;;;5009587;28;20490;-75
2022/03/24 09:59:50;;;;;;;43.20;30.85;;;14.10;96.30;;;;;;5006645;28;20049;-75
2022/03/24 10:02:16;;;;;;;42.67;29.92;;;14.20;96.30;;;;;;5015641;28;20041;-75
2022/03/24 10:04:46;;;;;;;39.15;27.55;;;14.20;95.40;;;;;;5032957;28;20072;-75
2022/03/24 10:07:12;;;;;;;41.90;30.40;;;14.30;95.30;;;;;;5016538;28;20080;-75
2022/03/24 10:09:46;;;;;;;39.15;29.08;;;14.40;94.70;;;;;;5016298;28;20115;-75
2022/03/24 10:12:26;;;;;;;38.65;28.45;;;14.50;90.10;;;;;;5032890;28;20046;-75
2022/03/24 10:14:56;;;;;;;39.60;26.42;;;14.60;91.40;;;;;;5011290;28;20053;-75
2022/03/24 10:17:22;;;;;;;38.72;27.88;;;14.80;92.50;;;;;;5013113;28;20046;-75
2022/03/24 10:20:05;;;;;;;39.42;28.02;;;14.90;92.50;;;;;;4996577;28;20044;-75
2022/03/24 10:22:31;;;;;;;39.15;28.27;;;15.00;89.70;;;;;;5013052;28;20171;-75
2022/03/24 10:24:57;;;;;;;37.13;25.42;;;15.00;81.40;;;;;;5030923;28;20049;-75
2022/03/24 10:27:25;;;;;;;36.00;25.05;;;15.10;90.50;;;;;;5011729;28;20046;-75
2022/03/24 10:29:54;;;;;;;38.05;25.63;;;15.10;88.30;;;;;;5049318;28;20049;-75
2022/03/24 10:32:21;;;;;;;40.20;27.77;;;15.10;90.00;;;;;;5032559;28;20045;-75
2022/03/24 10:34:48;;;;;;;39.92;25.83;;;15.40;87.20;;;;;;5015920;28;20045;-75
2022/03/24 10:37:19;;;;;;;42.55;25.35;;;15.40;85.20;;;;;;5015966;28;20037;-75
2022/03/24 10:40:14;;;;;;;35.85;24.58;;;15.40;77.40;;;;;;5032295;28;20502;-75
2022/03/24 10:42:41;;;;;;;41.35;26.25;;;15.50;80.70;;;;;;5011035;28;20136;-75
2022/03/24 10:45:18;;;;;;;37.30;26.63;;;15.60;81.90;;;;;;5012419;28;20104;-75
2022/03/24 10:47:58;;;;;;;40.50;27.48;;;15.60;71.50;;;;;;5012627;28;20050;-75
2022/03/24 10:50:39;;;;;;;37.03;26.33;;;15.60;76.30;;;;;;5012728;28;20052;-75
2022/03/24 10:53:15;;;;;;;39.38;24.65;;;15.80;74.20;;;;;;5012708;28;20044;-75
2022/03/24 10:55:44;;;;;;;44.22;29.00;;;15.80;77.80;;;;;;5024136;28;20037;-75
2022/03/24 10:58:33;;;;;;;44.90;28.67;;;15.80;76.90;;;;;;5010556;28;20038;-76
2022/03/24 11:01:01;;;;;;;40.25;28.42;;;15.90;72.80;;;;;;5029430;28;20041;-76
2022/03/24 11:03:27;;;;;;;37.85;26.77;;;15.90;73.50;;;;;;5029070;28;20049;-76
2022/03/24 11:06:04;;;;;;;44.15;30.15;;;15.90;75.90;;;;;;5014067;28;20046;-76
2022/03/24 11:08:30;;;;;;;41.88;28.77;;;16.00;72.10;;;;;;5025746;28;20495;-76
2022/03/24 11:10:56;;;;;;;39.65;26.95;;;16.10;74.70;;;;;;5043680;28;20111;-76
2022/03/24 11:13:30;;;;;;;45.00;28.02;;;16.20;73.00;;;;;;5018524;28;20037;-76
2022/03/24 11:15:56;;;;;;;41.20;25.77;;;16.10;68.00;;;;;;5021982;28;20505;-76
2022/03/24 11:18:24;;;;;;;37.78;26.20;;;16.20;72.50;;;;;;5044589;28;20490;-76
2022/03/24 11:20:51;;;;;;;37.28;26.70;;;16.20;72.00;;;;;;5012194;28;20112;-76
2022/03/24 11:23:16;;;;;;;35.28;25.60;;;16.30;70.30;;;;;;5013988;28;20113;-76
2022/03/24 11:25:43;;;;;;;38.17;25.50;;;16.40;67.10;;;;;;5029804;28;20045;-76
2022/03/24 11:28:13;;;;;;;34.28;24.48;;;16.40;68.10;;;;;;5033046;28;20129;-76
2022/03/24 11:30:39;;;;;;;37.05;26.23;;;16.40;68.70;;;;;;5033755;28;20063;-77
2022/03/24 11:33:04;;;;;;;34.60;24.98;;;16.40;67.90;;;;;;5051548;28;20124;-76
2022/03/24 11:35:33;;;;;;;36.15;23.20;;;16.40;67.40;;;;;;5034304;28;20559;-76
2022/03/24 11:38:00;;;;;;;37.38;24.23;;;16.50;64.60;;;;;;5024041;28;20438;-76
2022/03/24 11:40:28;;;;;;;31.85;22.20;;;16.40;60.00;;;;;;5016778;28;20099;-77
2022/03/24 11:43:17;;;;;;;33.13;24.08;;;16.40;62.00;;;;;;5034325;28;20473;-76
2022/03/24 11:45:48;;;;;;;31.55;20.38;;;16.50;57.00;;;;;;5028105;28;20132;-76
2022/03/24 11:48:16;;;;;;;28.67;20.83;;;16.50;55.20;;;;;;5019136;28;20502;-77
2022/03/24 11:50:53;;;;;;;34.45;23.40;;;16.40;60.60;;;;;;5033045;28;20044;-77
2022/03/24 11:53:27;;;;;;;31.05;21.80;;;16.50;57.10;;;;;;5035293;28;20116;-77
2022/03/24 11:55:59;;;;;;;32.58;21.38;;;16.40;60.40;;;;;;5034278;28;20037;-76
2022/03/24 11:58:30;;;;;;;30.42;19.05;;;16.40;53.40;;;;;;5015077;28;20048;-77
2022/03/24 12:00:56;;;;;;;32.25;21.35;;;16.40;59.10;;;;;;5034166;28;20084;-77
2022/03/24 12:03:43;;;;;;;30.77;19.98;;;16.40;52.20;;;;;;5030496;28;20076;-75
2022/03/24 12:06:10;;;;;;;30.88;20.27;;;16.30;53.90;;;;;;5034116;28;20069;-76
2022/03/24 12:08:52;;;;;;;33.95;21.40;;;16.40;58.00;;;;;;5022063;28;20041;-76
2022/03/24 12:11:33;;;;;;;33.20;22.48;;;16.40;58.60;;;;;;5015294;28;20398;-75
2022/03/24 12:14:04;;;;;;;36.75;23.83;;;16.40;57.00;;;;;;5030948;28;20034;-75
2022/03/24 12:16:31;;;;;;;38.40;24.90;;;16.40;59.70;;;;;;5027287;28;20120;-76
2022/03/24 12:18:57;;;;;;;35.28;24.58;;;16.50;59.30;;;;;;5017664;28;20037;-76
2022/03/24 12:21:28;;;;;;;34.97;25.33;;;16.60;59.00;;;;;;5017202;28;20091;-76
2022/03/24 12:24:15;;;;;;;35.60;25.33;;;16.50;58.70;;;;;;5017500;28;20108;-75
2022/03/24 12:26:56;;;;;;;37.42;26.50;;;16.60;60.70;;;;;;5028575;28;20512;-75
2022/03/24 12:29:30;;;;;;;36.97;25.80;;;16.60;60.40;;;;;;5017195;28;20049;-77
2022/03/24 12:32:03;;;;;;;37.15;26.98;;;16.60;60.90;;;;;;5032671;28;20048;-76
2022/03/24 12:34:44;;;;;;;39.50;25.45;;;16.70;57.90;;;;;;5033375;28;20038;-76
2022/03/24 12:37:32;;;;;;;37.83;26.45;;;16.70;60.40;;;;;;5049854;28;20041;-76